Terminal Aerodrome Forecast
Issued by NWS St Louis, MO

Home | Current Version | Previous Version | Text Only | Print | Product List | Glossary On
Versions: 1 2 3 4 5 6 7 8 9 10 11 12 13 14 15 16
426
FTUS43 KLSX 200543
TAFCOU
TAF
KCOU 200543Z 2006/2106 15010KT P6SM BKN250
     FM201300 15012KT P6SM SCT050 BKN120
     FM201800 17014G23KT 6SM -SHRA VCTS OVC040CB
     FM210000 21010KT P6SM -SHRA BKN030=

USA.gov is the U.S. government's official web portal to all federal, state and local government web resources and services.